Time;durP1;ratioP1;P1;durP2;ratioP2;P2;SDS_P1;SDS_P2;PMS_P1;PMS_P2;Temp;Humidity;BMP_temperature;BMP_pressure;BME280_temperature;BME280_humidity;BME280_pressure;Samples;Min_cycle;Max_cycle;Signal;HPM_P1;HPM_P2
2022/06/02 00:02:09;;;;;;;1.77;1.02;;;17.30;91.10;;;;;;5032512;28;20202;-60
2022/06/02 00:04:42;;;;;;;1.00;0.80;;;17.40;91.50;;;;;;5032422;28;20226;-60
2022/06/02 00:07:17;;;;;;;1.33;1.03;;;17.40;91.20;;;;;;5032383;28;20202;-60
2022/06/02 00:10:00;;;;;;;2.97;1.30;;;17.40;91.80;;;;;;5032379;28;20205;-60
2022/06/02 00:12:32;;;;;;;2.63;1.10;;;17.40;92.70;;;;;;5032709;28;20239;-60
2022/06/02 00:15:11;;;;;;;3.13;1.80;;;17.40;93.20;;;;;;5032242;28;20229;-60
2022/06/02 00:17:45;;;;;;;1.70;1.00;;;17.30;93.40;;;;;;5032676;28;20205;-60
2022/06/02 00:20:17;;;;;;;2.03;1.30;;;17.30;93.50;;;;;;5032190;28;20209;-60
2022/06/02 00:22:55;;;;;;;3.90;1.50;;;17.20;93.40;;;;;;5032345;28;20207;-60
2022/06/02 00:25:31;;;;;;;1.27;1.03;;;17.20;93.40;;;;;;5032052;28;20721;-60
2022/06/02 00:28:04;;;;;;;2.03;1.20;;;17.30;93.50;;;;;;5032223;28;20307;-60
2022/06/02 00:30:38;;;;;;;1.87;1.00;;;17.30;93.50;;;;;;5032135;28;20207;-60
2022/06/02 00:33:18;;;;;;;2.80;1.00;;;17.20;93.60;;;;;;5032409;28;20210;-60
2022/06/02 00:35:52;;;;;;;2.37;0.97;;;17.20;93.80;;;;;;5032155;28;20610;-61
2022/06/02 00:38:24;;;;;;;1.73;1.20;;;17.20;93.80;;;;;;5032627;28;20637;-60
2022/06/02 00:40:53;;;;;;;1.40;1.00;;;17.10;93.60;;;;;;5032193;28;20211;-60
2022/06/02 00:43:52;;;;;;;1.90;0.90;;;17.00;92.80;;;;;;5032390;28;20232;-60
2022/06/02 00:46:24;;;;;;;1.83;0.80;;;16.90;92.70;;;;;;5032266;28;20206;-60
2022/06/02 00:49:10;;;;;;;0.90;0.80;;;16.90;91.50;;;;;;5032109;28;20253;-60
2022/06/02 00:51:49;;;;;;;1.27;0.60;;;16.80;91.10;;;;;;5031835;28;20226;-60
2022/06/02 00:57:34;;;;;;;1.37;0.90;;;16.50;91.60;;;;;;5032027;28;20226;-60
2022/06/02 01:00:11;;;;;;;1.48;0.93;;;16.50;91.70;;;;;;5031848;28;20213;-60
2022/06/02 01:02:49;;;;;;;1.73;0.80;;;16.40;91.70;;;;;;5032083;28;20229;-60
2022/06/02 01:05:22;;;;;;;1.70;0.90;;;16.50;91.70;;;;;;5031824;28;20226;-60
2022/06/02 01:07:56;;;;;;;2.23;1.10;;;16.60;91.70;;;;;;5032041;28;20206;-60
2022/06/02 01:10:36;;;;;;;1.23;0.90;;;16.60;91.50;;;;;;5031800;28;20210;-60
2022/06/02 01:13:30;;;;;;;2.73;1.00;;;16.50;91.70;;;;;;5031857;28;20249;-60
2022/06/02 01:16:04;;;;;;;2.43;1.07;;;16.50;91.70;;;;;;5031837;28;20293;-60
2022/06/02 01:18:44;;;;;;;2.03;0.80;;;16.60;91.80;;;;;;5031621;28;20210;-60
2022/06/02 01:21:48;;;;;;;1.20;0.90;;;16.60;92.10;;;;;;5031816;28;20292;-60
2022/06/02 01:24:44;;;;;;;0.77;0.77;;;16.50;92.20;;;;;;4984745;28;20264;-60
2022/06/02 01:28:01;;;;;;;1.07;0.80;;;16.50;92.30;;;;;;5016095;28;20213;-62
2022/06/02 01:30:48;;;;;;;4.73;2.03;;;16.50;92.60;;;;;;5031431;28;20216;-60
2022/06/02 01:33:33;;;;;;;3.00;1.80;;;16.30;92.20;;;;;;5031887;28;20257;-61
2022/06/02 01:36:07;;;;;;;2.73;1.30;;;16.20;91.90;;;;;;5031494;28;20211;-61
2022/06/02 01:38:46;;;;;;;1.43;1.10;;;16.10;91.90;;;;;;5031674;28;20218;-60
2022/06/02 01:41:23;;;;;;;1.53;1.10;;;16.10;91.90;;;;;;5031652;28;20210;-60
2022/06/02 01:44:00;;;;;;;2.73;1.10;;;16.00;92.00;;;;;;5031877;28;20317;-60
2022/06/02 01:46:39;;;;;;;2.87;1.00;;;16.00;92.20;;;;;;5031749;28;20215;-60
2022/06/02 01:49:15;;;;;;;3.03;2.00;;;15.90;92.50;;;;;;5034999;28;20212;-60
2022/06/02 01:51:54;;;;;;;5.93;2.40;;;15.90;92.60;;;;;;5035171;28;20268;-59
2022/06/02 01:54:33;;;;;;;2.33;1.50;;;15.80;92.80;;;;;;5035497;28;20234;-61
2022/06/02 01:57:11;;;;;;;5.60;1.37;;;15.80;93.00;;;;;;5035252;28;20206;-60
2022/06/02 01:59:49;;;;;;;1.90;1.10;;;15.80;92.80;;;;;;5034312;28;20560;-60
2022/06/02 02:02:24;;;;;;;2.10;0.93;;;15.80;92.90;;;;;;5034281;28;20206;-60
2022/06/02 02:05:18;;;;;;;6.43;1.47;;;15.90;92.80;;;;;;5034966;28;20284;-60
2022/06/02 02:07:58;;;;;;;1.43;1.10;;;15.90;92.70;;;;;;5035020;28;20206;-60
2022/06/02 02:10:35;;;;;;;2.00;0.97;;;15.80;92.80;;;;;;5034657;28;20296;-60
2022/06/02 02:13:11;;;;;;;1.30;1.10;;;15.80;92.60;;;;;;5034517;28;20599;-60
2022/06/02 02:15:47;;;;;;;2.10;1.10;;;15.90;92.60;;;;;;5034830;28;20216;-60
2022/06/02 02:18:32;;;;;;;4.90;1.10;;;15.90;92.40;;;;;;5034462;28;20644;-60
2022/06/02 02:21:15;;;;;;;1.10;0.90;;;15.80;92.30;;;;;;5034375;28;20210;-60
2022/06/02 02:23:51;;;;;;;1.80;1.20;;;15.80;92.30;;;;;;5034384;28;20275;-59
2022/06/02 02:26:24;;;;;;;2.47;1.33;;;15.80;92.40;;;;;;5034186;28;20210;-60
2022/06/02 02:28:56;;;;;;;2.97;1.10;;;15.80;92.60;;;;;;5034108;28;20214;-60
2022/06/02 02:31:34;;;;;;;3.60;1.20;;;15.80;92.60;;;;;;5034563;28;20237;-60
2022/06/02 02:34:11;;;;;;;1.60;1.30;;;15.80;92.80;;;;;;5034102;28;20260;-60
2022/06/02 02:36:45;;;;;;;1.23;1.00;;;15.70;92.90;;;;;;5034325;28;20206;-60
2022/06/02 02:39:17;;;;;;;2.63;0.97;;;15.70;92.90;;;;;;5033953;28;20260;-60
2022/06/02 02:41:48;;;;;;;1.37;1.10;;;15.90;92.80;;;;;;5034214;28;20260;-60
2022/06/02 02:44:21;;;;;;;3.33;1.27;;;15.80;92.50;;;;;;5034159;28;20659;-60
2022/06/02 02:46:57;;;;;;;1.50;1.17;;;15.90;92.40;;;;;;5034086;28;20276;-60
2022/06/02 02:49:33;;;;;;;1.50;1.13;;;15.90;92.20;;;;;;5033661;28;20206;-60
2022/06/02 02:52:06;;;;;;;1.40;0.93;;;15.90;92.20;;;;;;5033818;28;20226;-60
2022/06/02 02:54:41;;;;;;;1.77;1.10;;;15.80;92.30;;;;;;5033654;28;20706;-60
2022/06/02 02:57:16;;;;;;;2.33;1.10;;;15.70;92.60;;;;;;5034150;28;20267;-60
2022/06/02 02:59:51;;;;;;;1.73;1.00;;;15.60;92.80;;;;;;5032286;28;20665;-60
2022/06/02 03:02:23;;;;;;;2.40;1.10;;;15.40;93.10;;;;;;5033363;28;20713;-60
2022/06/02 03:05:02;;;;;;;3.70;1.30;;;15.40;93.30;;;;;;5033841;28;20239;-60
2022/06/02 03:07:31;;;;;;;1.20;1.00;;;15.40;93.20;;;;;;5033590;28;20715;-60
2022/06/02 03:10:04;;;;;;;2.30;1.20;;;15.40;93.10;;;;;;5033386;28;20202;-60
2022/06/02 03:12:55;;;;;;;2.00;1.43;;;15.30;93.20;;;;;;5033341;28;20701;-60
2022/06/02 03:15:27;;;;;;;1.97;1.10;;;15.20;93.60;;;;;;5033107;28;20234;-60
2022/06/02 03:18:28;;;;;;;3.43;1.23;;;15.10;94.00;;;;;;5033581;28;20218;-60
2022/06/02 03:20:59;;;;;;;4.00;1.07;;;15.10;94.20;;;;;;5033108;28;20689;-60
2022/06/02 03:23:46;;;;;;;2.77;1.60;;;15.10;94.20;;;;;;5033394;28;20234;-60
2022/06/02 03:26:22;;;;;;;2.37;1.30;;;15.20;94.10;;;;;;5033612;28;20655;-60
2022/06/02 03:28:59;;;;;;;7.13;4.43;;;15.30;94.10;;;;;;5033189;28;20202;-60
2022/06/02 03:31:37;;;;;;;3.40;1.50;;;15.40;94.00;;;;;;5033207;28;20229;-61
2022/06/02 03:34:14;;;;;;;4.67;1.43;;;15.40;94.10;;;;;;5033310;28;20237;-59
2022/06/02 03:37:16;;;;;;;4.83;1.40;;;15.40;94.30;;;;;;5032957;28;20682;-59
2022/06/02 03:39:54;;;;;;;4.33;2.33;;;15.40;94.40;;;;;;5032605;28;20206;-59
2022/06/02 03:42:31;;;;;;;1.90;1.30;;;15.30;94.30;;;;;;5033210;28;20206;-59
2022/06/02 03:45:20;;;;;;;1.30;1.20;;;15.40;94.70;;;;;;5032907;28;20236;-59
2022/06/02 03:48:03;;;;;;;3.83;2.53;;;15.50;95.00;;;;;;5032915;28;20225;-59
2022/06/02 03:50:58;;;;;;;2.53;1.27;;;15.60;95.10;;;;;;5032888;28;20214;-59
2022/06/02 03:53:58;;;;;;;1.70;1.30;;;15.80;95.50;;;;;;5033041;28;20241;-60
2022/06/02 03:56:44;;;;;;;1.87;1.50;;;15.80;95.80;;;;;;5019497;28;20241;-60
2022/06/02 03:59:25;;;;;;;2.10;1.20;;;15.90;96.50;;;;;;5032491;28;20206;-60
2022/06/02 04:01:57;;;;;;;1.30;1.20;;;15.80;97.00;;;;;;5032600;28;20206;-60
2022/06/02 04:04:33;;;;;;;3.70;1.30;;;15.80;97.50;;;;;;5032290;28;20226;-60
2022/06/02 04:07:16;;;;;;;3.00;1.43;;;15.80;97.60;;;;;;5032236;28;20205;-60
2022/06/02 04:09:52;;;;;;;3.03;1.67;;;16.00;97.40;;;;;;5031941;28;20221;-60
2022/06/02 04:15:54;;;;;;;2.83;2.30;;;16.00;97.60;;;;;;5032135;28;20268;-60
2022/06/02 04:18:30;;;;;;;3.93;2.40;;;15.90;97.90;;;;;;5032084;28;20674;-60
2022/06/02 04:21:09;;;;;;;5.33;3.20;;;15.90;98.30;;;;;;5031845;28;20213;-60
2022/06/02 04:23:56;;;;;;;4.60;2.60;;;15.90;98.50;;;;;;5031566;28;20279;-60
2022/06/02 04:26:49;;;;;;;4.17;1.43;;;15.90;97.90;;;;;;5032161;28;20241;-60
2022/06/02 04:29:37;;;;;;;4.40;1.97;;;15.90;97.50;;;;;;5031675;28;20236;-60
2022/06/02 04:32:16;;;;;;;5.30;1.83;;;15.90;97.20;;;;;;5032160;28;20229;-60
2022/06/02 04:34:54;;;;;;;3.07;2.13;;;15.90;97.00;;;;;;5031900;28;20276;-60
2022/06/02 04:37:32;;;;;;;4.03;2.53;;;16.00;97.20;;;;;;5031905;28;20210;-60
2022/06/02 04:40:09;;;;;;;4.43;2.70;;;16.00;97.50;;;;;;5031573;28;20210;-60
2022/06/02 04:42:46;;;;;;;3.53;2.60;;;16.00;98.50;;;;;;5031588;28;20210;-60
2022/06/02 04:45:22;;;;;;;4.33;2.33;;;16.00;98.80;;;;;;5031819;28;20226;-60
2022/06/02 04:48:01;;;;;;;3.47;1.90;;;16.10;98.90;;;;;;5031545;28;20210;-60
2022/06/02 04:50:36;;;;;;;3.97;2.40;;;16.30;99.00;;;;;;5031488;28;20210;-60
2022/06/02 04:53:12;;;;;;;4.53;2.27;;;16.70;98.30;;;;;;5031730;28;20230;-60
2022/06/02 04:55:53;;;;;;;2.00;1.80;;;17.10;97.80;;;;;;5031937;28;20690;-60
2022/06/02 04:58:28;;;;;;;3.47;1.80;;;17.60;97.00;;;;;;5032157;28;20665;-60
2022/06/02 05:01:03;;;;;;;2.05;1.50;;;18.00;96.20;;;;;;5032043;28;20341;-60
2022/06/02 05:03:38;;;;;;;3.60;1.45;;;18.80;94.70;;;;;;5031869;28;20313;-60
2022/06/02 05:06:12;;;;;;;4.68;4.07;;;19.20;93.20;;;;;;5031846;28;20210;-60
2022/06/02 05:09:07;;;;;;;4.43;1.70;;;19.60;93.10;;;;;;5031663;28;20216;-60
2022/06/02 05:12:02;;;;;;;2.25;1.35;;;20.90;90.00;;;;;;5013555;28;20206;-60
2022/06/02 05:14:33;;;;;;;3.00;1.52;;;22.70;84.30;;;;;;5031872;28;20284;-61
2022/06/02 05:17:17;;;;;;;1.42;1.25;;;23.70;79.00;;;;;;5031637;28;20210;-60
2022/06/02 05:20:14;;;;;;;3.22;1.40;;;24.70;74.70;;;;;;5031449;28;20202;-60
2022/06/02 05:23:08;;;;;;;2.17;1.30;;;26.20;66.70;;;;;;5033123;28;20272;-61
2022/06/02 05:25:53;;;;;;;4.07;1.40;;;27.50;60.80;;;;;;5057504;23;20237;-58
2022/06/02 05:28:56;;;;;;;5.35;1.23;;;27.10;57.40;;;;;;5035185;28;20222;-58
2022/06/02 05:31:50;;;;;;;10.00;6.32;;;26.30;59.60;;;;;;5035436;28;20206;-58
2022/06/02 05:34:56;;;;;;;2.38;1.50;;;26.20;59.90;;;;;;5035276;28;20241;-58
2022/06/02 05:37:36;;;;;;;2.25;1.20;;;26.50;59.10;;;;;;5035342;28;20217;-58
2022/06/02 05:40:19;;;;;;;2.22;1.17;;;28.00;56.10;;;;;;5035061;28;20206;-58
2022/06/02 05:43:00;;;;;;;5.13;1.70;;;29.30;51.80;;;;;;5034832;28;20665;-58
2022/06/02 05:45:42;;;;;;;2.50;1.17;;;30.60;50.20;;;;;;5035371;28;20237;-58
2022/06/02 05:48:22;;;;;;;3.35;1.00;;;31.30;47.60;;;;;;5035062;28;20210;-58
2022/06/02 05:50:54;;;;;;;2.53;1.20;;;31.90;47.20;;;;;;5034765;28;20206;-58
2022/06/02 05:53:35;;;;;;;3.13;1.20;;;31.50;45.70;;;;;;5035444;28;20226;-65
2022/06/02 05:56:09;;;;;;;3.42;2.88;;;30.00;47.00;;;;;;5036460;28;20217;-66
2022/06/02 05:58:54;;;;;;;3.38;1.45;;;29.10;49.20;;;;;;5036140;28;20272;-66
2022/06/02 06:01:32;;;;;;;3.38;1.60;;;29.60;47.70;;;;;;5035447;28;20213;-63
2022/06/02 06:04:35;;;;;;;3.72;2.55;;;30.20;46.60;;;;;;5037286;28;20230;-71
2022/06/02 06:07:14;;;;;;;2.40;1.48;;;30.70;45.50;;;;;;5035963;28;20210;-65
2022/06/02 06:09:52;;;;;;;3.60;1.38;;;30.90;46.00;;;;;;5035357;28;20214;-68
2022/06/02 06:12:53;;;;;;;3.50;2.03;;;31.40;45.20;;;;;;5035820;28;20205;-64
2022/06/02 06:15:27;;;;;;;5.03;2.00;;;32.40;43.80;;;;;;5031673;28;20324;-64
2022/06/02 06:18:02;;;;;;;1.55;0.82;;;32.90;42.30;;;;;;5034696;28;20584;-62
2022/06/02 06:20:55;;;;;;;2.15;1.25;;;33.50;41.30;;;;;;5034261;28;20217;-61
2022/06/02 06:23:50;;;;;;;3.08;1.25;;;33.10;41.00;;;;;;5034563;28;20209;-61
2022/06/02 06:26:28;;;;;;;2.40;1.05;;;32.70;41.40;;;;;;5034382;28;20214;-61
2022/06/02 06:29:12;;;;;;;2.70;1.13;;;32.90;41.50;;;;;;5034071;28;20210;-61
2022/06/02 06:31:50;;;;;;;3.28;1.17;;;33.60;40.30;;;;;;5034235;28;20252;-61
2022/06/02 06:34:28;;;;;;;2.25;0.80;;;34.10;39.90;;;;;;5033745;28;20238;-60
2022/06/02 06:37:15;;;;;;;2.83;0.88;;;34.30;39.20;;;;;;5034060;28;20206;-61
2022/06/02 06:39:56;;;;;;;1.42;0.80;;;34.40;39.20;;;;;;5034114;28;20210;-61
2022/06/02 06:42:40;;;;;;;2.10;0.90;;;33.40;39.60;;;;;;5034118;28;20293;-60
2022/06/02 06:45:14;;;;;;;1.10;0.88;;;32.50;40.80;;;;;;5034249;28;20229;-60
2022/06/02 06:47:45;;;;;;;1.70;0.90;;;32.20;41.40;;;;;;5034210;28;20206;-60
2022/06/02 06:50:19;;;;;;;1.67;1.00;;;32.80;40.80;;;;;;5033882;28;20206;-61
2022/06/02 06:53:02;;;;;;;1.42;0.95;;;33.60;39.70;;;;;;5033951;28;20583;-62
2022/06/02 06:55:44;;;;;;;1.45;1.05;;;34.20;39.50;;;;;;5033862;28;20230;-61
2022/06/02 06:58:20;;;;;;;3.15;1.88;;;34.80;38.30;;;;;;5034170;28;20206;-61
2022/06/02 07:00:55;;;;;;;2.70;0.93;;;35.10;38.00;;;;;;5033725;28;20210;-61
2022/06/02 07:03:32;;;;;;;1.58;1.00;;;34.70;38.70;;;;;;5034198;28;20211;-60
2022/06/02 07:06:06;;;;;;;1.10;0.90;;;34.30;39.20;;;;;;5034008;28;20662;-61
2022/06/02 07:08:37;;;;;;;0.88;0.77;;;34.80;38.60;;;;;;5034009;28;20209;-62
2022/06/02 07:12:50;;;;;;;1.45;1.00;;;35.50;37.70;;;;;;5033489;28;20682;-61
2022/06/02 07:14:08;;;;;;;1.42;0.93;;;36.20;37.10;;;;;;5034123;28;20244;-62
2022/06/02 07:16:41;;;;;;;1.77;0.80;;;36.30;36.80;;;;;;5034170;28;20208;-61
2022/06/02 07:19:18;;;;;;;3.08;1.05;;;36.20;36.70;;;;;;5033727;28;20700;-61
2022/06/02 07:21:54;;;;;;;1.52;1.08;;;36.00;37.10;;;;;;5033925;28;20210;-61
2022/06/02 07:24:33;;;;;;;2.22;1.02;;;36.00;37.00;;;;;;5033596;28;20237;-61
2022/06/02 07:27:11;;;;;;;2.13;1.02;;;34.60;37.90;;;;;;5033024;28;20201;-57
2022/06/02 07:29:55;;;;;;;1.67;0.85;;;34.00;38.90;;;;;;5032995;28;20205;-57
2022/06/02 07:32:58;;;;;;;4.28;0.90;;;34.00;39.00;;;;;;5033141;28;20569;-57
2022/06/02 07:35:51;;;;;;;1.98;0.85;;;35.70;37.30;;;;;;5033114;28;20262;-57
2022/06/02 07:38:33;;;;;;;2.78;0.93;;;36.90;35.90;;;;;;5033167;28;20245;-57
2022/06/02 07:41:10;;;;;;;1.92;0.90;;;38.10;34.80;;;;;;5032801;28;20206;-58
2022/06/02 07:44:04;;;;;;;2.88;0.90;;;37.50;35.00;;;;;;5032653;28;20202;-57
2022/06/02 07:46:51;;;;;;;2.55;0.80;;;37.70;34.90;;;;;;5032183;28;20214;-58
2022/06/02 07:49:52;;;;;;;1.83;0.80;;;37.30;35.00;;;;;;5032576;28;20210;-57
2022/06/02 07:52:27;;;;;;;3.00;0.80;;;37.00;35.30;;;;;;5012702;28;20211;-57
2022/06/02 07:55:03;;;;;;;1.45;0.80;;;37.20;35.10;;;;;;5032629;28;20229;-58
2022/06/02 07:57:39;;;;;;;1.00;0.80;;;38.00;34.80;;;;;;5032601;28;20618;-58
2022/06/02 08:00:14;;;;;;;0.98;0.63;;;39.20;33.40;;;;;;5032925;28;20205;-58
2022/06/02 08:02:55;;;;;;;1.95;0.90;;;39.70;32.60;;;;;;5032750;28;20260;-58
2022/06/02 08:05:32;;;;;;;1.98;1.00;;;38.10;34.10;;;;;;5032650;28;20226;-57
2022/06/02 08:08:03;;;;;;;1.90;0.77;;;37.60;34.60;;;;;;5032434;28;20202;-58
2022/06/02 08:10:40;;;;;;;2.53;0.95;;;36.80;35.10;;;;;;5032268;28;20210;-57
2022/06/02 08:13:16;;;;;;;2.53;0.90;;;36.60;34.80;;;;;;5032434;28;20214;-57
2022/06/02 08:15:50;;;;;;;1.92;0.80;;;36.70;35.00;;;;;;5032430;28;20226;-58
2022/06/02 08:18:36;;;;;;;2.88;0.80;;;36.20;35.50;;;;;;5032545;28;20252;-57
2022/06/02 08:21:17;;;;;;;1.75;0.70;;;35.00;36.60;;;;;;5032677;28;20236;-58
2022/06/02 08:24:01;;;;;;;1.40;0.70;;;35.40;36.30;;;;;;5032841;28;20205;-58
2022/06/02 08:26:40;;;;;;;1.50;0.90;;;35.60;36.30;;;;;;5032534;28;20209;-57
2022/06/02 08:29:22;;;;;;;2.58;0.70;;;35.50;35.90;;;;;;5032250;28;20214;-57
2022/06/02 08:32:15;;;;;;;1.42;0.80;;;34.80;36.50;;;;;;5031987;28;20206;-57
2022/06/02 08:34:52;;;;;;;1.42;0.80;;;35.20;35.90;;;;;;5031874;28;20230;-57
2022/06/02 08:37:29;;;;;;;1.05;0.90;;;34.90;36.30;;;;;;5032250;28;20210;-57
2022/06/02 08:40:16;;;;;;;1.25;0.95;;;34.90;35.70;;;;;;5031727;28;20302;-58
2022/06/02 08:43:22;;;;;;;1.08;0.80;;;34.40;36.20;;;;;;5031807;28;20654;-57
2022/06/02 08:46:17;;;;;;;2.20;0.98;;;33.60;37.00;;;;;;5031408;28;20275;-58
2022/06/02 08:49:23;;;;;;;8.63;4.03;;;32.40;38.20;;;;;;5032458;28;20202;-61
2022/06/02 08:52:28;;;;;;;1.23;0.60;;;30.80;41.50;;;;;;5031987;28;20210;-58
2022/06/02 08:55:40;;;;;;;2.20;1.13;;;29.10;42.50;;;;;;5031957;28;20229;-58
2022/06/02 08:58:37;;;;;;;2.55;0.95;;;27.10;45.60;;;;;;5036765;28;20213;-58
2022/06/02 09:01:12;;;;;;;2.63;1.20;;;25.50;47.40;;;;;;5032067;28;20738;-59
2022/06/02 09:04:13;;;;;;;2.67;0.85;;;24.80;48.60;;;;;;5034956;28;20205;-59
2022/06/02 09:07:16;;;;;;;3.50;1.13;;;24.10;50.10;;;;;;5035310;28;20216;-61
2022/06/02 09:10:02;;;;;;;1.40;0.77;;;23.50;51.50;;;;;;4998166;28;20206;-61
2022/06/02 09:12:48;;;;;;;2.65;0.73;;;23.10;51.90;;;;;;5031583;28;20206;-60
2022/06/02 09:15:39;;;;;;;2.00;0.88;;;22.90;52.60;;;;;;5034612;28;20241;-61
2022/06/02 09:18:17;;;;;;;5.00;1.20;;;22.70;52.90;;;;;;5034715;28;20217;-61
2022/06/02 09:20:50;;;;;;;2.97;1.10;;;22.60;53.00;;;;;;5033733;28;20224;-61
2022/06/02 09:23:48;;;;;;;0.73;0.70;;;22.70;53.60;;;;;;5035130;28;20285;-60
2022/06/02 09:26:30;;;;;;;3.50;0.90;;;22.60;54.40;;;;;;5032932;28;20289;-60
2022/06/02 09:29:21;;;;;;;2.25;1.15;;;22.50;54.70;;;;;;5034399;28;20198;-60
2022/06/02 09:32:07;;;;;;;0.95;0.77;;;22.40;54.70;;;;;;5034491;28;20365;-59
2022/06/02 09:34:42;;;;;;;1.30;0.70;;;22.40;54.90;;;;;;5034729;28;20230;-63
2022/06/02 09:37:43;;;;;;;2.30;0.93;;;22.40;54.30;;;;;;5034362;28;20298;-60
2022/06/02 09:40:28;;;;;;;1.63;0.80;;;22.50;54.60;;;;;;4982052;28;20213;-61
2022/06/02 09:43:14;;;;;;;2.72;1.00;;;22.70;54.70;;;;;;5034536;28;20210;-60
2022/06/02 09:45:55;;;;;;;3.00;0.93;;;22.90;54.30;;;;;;5034330;28;20226;-60
2022/06/02 09:48:41;;;;;;;3.17;0.90;;;23.10;54.20;;;;;;5033947;28;20587;-61
2022/06/02 09:51:35;;;;;;;1.50;0.93;;;23.10;54.20;;;;;;5034126;28;20210;-60
2022/06/02 09:54:25;;;;;;;3.70;1.10;;;23.20;53.80;;;;;;5033710;28;20234;-61
2022/06/02 10:00:25;;;;;;;1.13;0.80;;;23.70;53.90;;;;;;4972233;28;20202;-59
2022/06/02 10:03:05;;;;;;;1.00;0.80;;;23.80;53.80;;;;;;4972146;28;20223;-59
2022/06/02 10:05:50;;;;;;;2.15;1.00;;;24.00;53.40;;;;;;5006536;28;20241;-60
2022/06/02 10:08:26;;;;;;;1.17;0.70;;;24.20;53.00;;;;;;5032735;28;20265;-59
2022/06/02 10:11:05;;;;;;;1.60;0.85;;;24.20;52.90;;;;;;5033907;28;20600;-61
2022/06/02 10:13:59;;;;;;;2.20;0.95;;;24.20;53.50;;;;;;5022064;28;20241;-59
2022/06/02 10:17:04;;;;;;;2.30;0.73;;;24.20;52.90;;;;;;5033385;28;20211;-61
2022/06/02 10:19:45;;;;;;;3.90;1.20;;;24.20;53.70;;;;;;5033241;28;20418;-59
2022/06/02 10:22:20;;;;;;;1.42;1.00;;;24.00;53.40;;;;;;5033608;28;20276;-58
2022/06/02 10:25:10;;;;;;;1.73;0.82;;;24.00;54.40;;;;;;5033429;28;20256;-59
2022/06/02 10:28:07;;;;;;;2.47;0.95;;;24.00;54.10;;;;;;5021026;28;20685;-58
2022/06/02 10:31:16;;;;;;;2.20;0.90;;;24.20;54.10;;;;;;5013111;28;20206;-60
2022/06/02 10:34:34;;;;;;;0.70;0.70;;;24.20;53.30;;;;;;5034380;28;20230;-61
2022/06/02 10:37:46;;;;;;;2.70;1.05;;;24.30;54.00;;;;;;5034383;28;20685;-60
2022/06/02 10:40:23;;;;;;;1.45;1.00;;;24.30;54.00;;;;;;5009023;28;20279;-60
2022/06/02 10:43:19;;;;;;;2.20;1.02;;;24.30;54.80;;;;;;5034333;28;20213;-60
2022/06/02 10:46:19;;;;;;;1.05;0.90;;;24.30;54.80;;;;;;5034251;28;20229;-60
2022/06/02 10:49:14;;;;;;;1.73;1.00;;;24.20;54.60;;;;;;5034693;28;20578;-60
2022/06/02 10:52:23;;;;;;;1.42;0.80;;;24.00;54.60;;;;;;5034254;28;20230;-61
2022/06/02 10:55:26;;;;;;;3.15;1.40;;;24.00;54.80;;;;;;5032748;28;20273;-62
2022/06/02 10:58:30;;;;;;;2.58;1.10;;;24.30;54.80;;;;;;5013758;28;20202;-64
2022/06/02 11:01:30;;;;;;;1.60;1.00;;;24.40;55.20;;;;;;5013855;28;20237;-63
2022/06/02 11:04:46;;;;;;;2.47;0.90;;;24.50;54.50;;;;;;5013387;28;20314;-62
2022/06/02 11:08:01;;;;;;;1.50;0.77;;;24.40;54.90;;;;;;5013964;28;20218;-63
2022/06/02 11:10:35;;;;;;;1.15;0.93;;;24.30;54.90;;;;;;5013352;28;20212;-62
2022/06/02 11:13:23;;;;;;;2.40;1.08;;;24.30;55.30;;;;;;5012526;28;20207;-67
2022/06/02 11:16:26;;;;;;;5.70;1.40;;;24.20;55.10;;;;;;5016110;28;20616;-60
2022/06/02 11:19:32;;;;;;;3.83;1.05;;;23.90;55.60;;;;;;5013575;28;20210;-60
2022/06/02 11:22:34;;;;;;;1.67;0.95;;;23.80;56.10;;;;;;5012864;28;20217;-62
2022/06/02 11:25:34;;;;;;;2.50;1.13;;;23.80;56.60;;;;;;5020521;23;20663;-62
2022/06/02 11:28:40;;;;;;;1.48;0.75;;;23.90;56.20;;;;;;5038451;28;20296;-60
2022/06/02 11:31:37;;;;;;;2.45;1.20;;;24.20;56.40;;;;;;5052172;28;20205;-62
2022/06/02 11:34:34;;;;;;;2.00;1.00;;;24.30;55.70;;;;;;5018225;28;20642;-63
2022/06/02 11:37:28;;;;;;;2.45;1.00;;;24.50;55.70;;;;;;5044015;28;20225;-64
2022/06/02 11:40:15;;;;;;;1.17;1.00;;;24.80;55.20;;;;;;5051564;28;20216;-63
2022/06/02 11:43:04;;;;;;;3.65;1.17;;;25.00;55.00;;;;;;5051270;28;20213;-62
2022/06/02 11:46:06;;;;;;;1.83;1.20;;;25.20;54.30;;;;;;5050990;28;20613;-62
2022/06/02 11:49:01;;;;;;;1.40;1.20;;;25.50;54.10;;;;;;5051339;28;20638;-62
2022/06/02 11:52:01;;;;;;;3.15;1.02;;;25.80;53.70;;;;;;5037226;28;20213;-63
2022/06/02 11:55:01;;;;;;;1.25;0.80;;;25.60;54.30;;;;;;5011464;28;20355;-63
2022/06/02 11:57:45;;;;;;;3.33;1.10;;;25.50;54.60;;;;;;5044708;28;20220;-62
2022/06/02 12:00:45;;;;;;;3.92;1.10;;;25.50;54.30;;;;;;5051576;28;20209;-63
2022/06/02 12:03:44;;;;;;;1.90;0.85;;;25.60;54.70;;;;;;5051504;28;20275;-62
2022/06/02 12:06:44;;;;;;;1.92;1.02;;;25.60;54.80;;;;;;5050687;28;20225;-65
2022/06/02 12:09:43;;;;;;;2.17;1.02;;;26.00;53.70;;;;;;5051201;28;20267;-62
2022/06/02 12:12:41;;;;;;;1.33;1.00;;;26.60;52.80;;;;;;5050732;28;20206;-60
2022/06/02 12:15:37;;;;;;;2.67;1.10;;;27.10;52.30;;;;;;5035154;28;20236;-60
2022/06/02 12:18:26;;;;;;;2.38;1.20;;;27.40;51.70;;;;;;5037871;28;20630;-60
2022/06/02 12:21:23;;;;;;;1.98;1.10;;;27.40;51.10;;;;;;5050610;28;20300;-60
2022/06/02 12:24:18;;;;;;;1.52;0.93;;;27.20;51.40;;;;;;5050768;28;20238;-60
2022/06/02 12:27:10;;;;;;;2.33;0.90;;;27.20;52.20;;;;;;5050924;28;20641;-60
2022/06/02 12:29:52;;;;;;;1.85;1.08;;;27.10;51.90;;;;;;5050597;28;20288;-63
2022/06/02 12:32:51;;;;;;;3.17;1.00;;;27.10;51.90;;;;;;5050706;28;20692;-62
2022/06/02 12:35:31;;;;;;;0.80;0.80;;;27.60;51.30;;;;;;5035446;28;20229;-61
2022/06/02 12:38:33;;;;;;;2.88;0.90;;;27.90;51.10;;;;;;5051157;28;20201;-67
2022/06/02 12:41:24;;;;;;;0.85;0.70;;;28.00;50.70;;;;;;5051585;28;20217;-65
2022/06/02 12:44:30;;;;;;;3.22;1.30;;;28.00;50.50;;;;;;5050773;28;20248;-64
2022/06/02 12:47:25;;;;;;;1.25;0.95;;;28.00;50.40;;;;;;5021617;28;20288;-64
2022/06/02 12:50:15;;;;;;;2.10;0.93;;;28.40;50.10;;;;;;5044039;28;20260;-63
2022/06/02 12:53:15;;;;;;;1.48;1.00;;;28.50;49.50;;;;;;5051218;28;20639;-62
2022/06/02 12:56:04;;;;;;;1.88;0.98;;;28.50;49.60;;;;;;5050446;28;20241;-66
2022/06/02 12:59:04;;;;;;;4.32;1.10;;;28.70;49.00;;;;;;5050604;28;20205;-64
2022/06/02 13:01:59;;;;;;;1.58;1.20;;;28.80;49.70;;;;;;5050683;28;20205;-62
2022/06/02 13:05:07;;;;;;;2.10;1.00;;;29.00;49.20;;;;;;5050348;28;20225;-61
2022/06/02 13:08:16;;;;;;;1.27;1.00;;;28.90;49.10;;;;;;5050254;28;20701;-61
2022/06/02 13:11:08;;;;;;;2.72;1.20;;;29.00;48.70;;;;;;5003051;28;20677;-62
2022/06/02 13:13:53;;;;;;;2.53;1.10;;;29.10;49.30;;;;;;5049985;28;20351;-61
2022/06/02 13:16:59;;;;;;;3.95;0.90;;;29.20;49.70;;;;;;5050389;28;20232;-61
2022/06/02 13:19:49;;;;;;;1.63;0.95;;;29.10;49.20;;;;;;5050009;28;20631;-59
2022/06/02 13:22:41;;;;;;;1.88;1.00;;;29.10;49.80;;;;;;5050296;28;20213;-63
2022/06/02 13:25:34;;;;;;;7.63;0.95;;;29.40;49.40;;;;;;5050186;28;20237;-64
2022/06/02 13:28:52;;;;;;;2.45;1.10;;;29.60;48.70;;;;;;5050071;28;20664;-64
2022/06/02 13:31:50;;;;;;;3.20;1.00;;;29.60;48.10;;;;;;4968640;28;20220;-63
2022/06/02 13:34:42;;;;;;;1.40;0.90;;;29.60;48.00;;;;;;5049171;28;20233;-56
2022/06/02 13:37:34;;;;;;;1.90;0.90;;;29.70;48.10;;;;;;5051317;28;20264;-56
2022/06/02 13:40:18;;;;;;;1.88;0.80;;;29.50;48.10;;;;;;5051065;28;20209;-55
2022/06/02 13:43:19;;;;;;;1.63;0.90;;;29.20;48.40;;;;;;5051432;28;20210;-57
2022/06/02 13:46:19;;;;;;;1.23;1.00;;;29.00;49.20;;;;;;5047080;28;20222;-55
2022/06/02 13:49:22;;;;;;;1.67;1.00;;;28.60;49.20;;;;;;5038035;28;20205;-56
2022/06/02 13:52:22;;;;;;;3.85;1.42;;;28.40;49.50;;;;;;5054282;28;20202;-57
2022/06/02 13:58:22;;;;;;;3.03;1.13;;;28.50;49.90;;;;;;5047759;28;20220;-56
2022/06/02 14:01:16;;;;;;;2.90;0.90;;;28.20;50.50;;;;;;5054255;28;20248;-57
2022/06/02 14:04:14;;;;;;;1.65;1.10;;;27.90;50.80;;;;;;5054519;28;20569;-58
2022/06/02 14:06:47;;;;;;;2.58;2.33;;;27.60;51.00;;;;;;5054551;28;20671;-57
2022/06/02 14:09:33;;;;;;;2.72;1.23;;;27.50;51.40;;;;;;5054250;28;20212;-57
2022/06/02 14:12:23;;;;;;;1.83;1.20;;;27.40;51.70;;;;;;5054528;28;20529;-57
2022/06/02 14:15:23;;;;;;;2.83;1.08;;;27.20;52.30;;;;;;5054349;28;20229;-56
2022/06/02 14:18:06;;;;;;;1.88;1.10;;;27.20;52.20;;;;;;5053956;28;20673;-56
2022/06/02 14:20:39;;;;;;;3.97;1.00;;;27.10;52.80;;;;;;5053844;28;20681;-56
2022/06/02 14:23:25;;;;;;;3.67;1.80;;;27.20;52.70;;;;;;5054476;28;20209;-56
2022/06/02 14:26:02;;;;;;;2.75;1.30;;;27.20;52.10;;;;;;5053985;28;20229;-57
2022/06/02 14:28:43;;;;;;;2.47;1.00;;;27.10;52.60;;;;;;5054231;28;20227;-56
2022/06/02 14:31:16;;;;;;;3.78;1.10;;;26.70;52.90;;;;;;5054171;28;20263;-57
2022/06/02 14:33:46;;;;;;;2.58;1.17;;;26.30;53.60;;;;;;5054204;28;20210;-56
2022/06/02 14:36:23;;;;;;;3.60;1.40;;;26.00;54.00;;;;;;5054064;28;20229;-57